Time,TemperatureF,DewpointF,PressureIn,WindDirection,WindDirectionDegrees,WindSpeedMPH,WindSpeedGustMPH,Humidity,HourlyPrecipIn,Conditions,Clouds,dailyrainin,SoftwareType,DateUTC
2013-04-19 00:03:00,47.0,35.0,30.14,NW,325,5.0,8.0,64,0.00,,,1.25,,2013-04-19 05:03:00,
2013-04-19 00:11:00,47.0,35.0,30.14,NW,325,5.0,8.0,64,0.00,,,1.25,,2013-04-19 05:11:00,
2013-04-19 00:22:00,46.0,35.0,30.14,NW,325,6.0,7.0,66,0.00,,,1.25,,2013-04-19 05:22:00,
2013-04-19 00:32:00,46.0,36.0,30.14,NW,325,3.0,6.0,68,0.00,,,1.25,,2013-04-19 05:32:00,
2013-04-19 00:42:00,46.0,36.0,30.14,NW,325,3.0,6.0,68,0.00,,,1.25,,2013-04-19 05:42:00,
2013-04-19 00:52:00,45.0,35.0,30.14,NW,325,5.0,6.0,69,0.00,,,1.25,,2013-04-19 05:52:00,
2013-04-19 01:01:00,45.0,35.0,30.14,NW,323,5.0,8.0,68,0.00,,,1.25,,2013-04-19 06:01:00,
2013-04-19 01:11:00,45.0,35.0,30.15,NW,318,5.0,8.0,69,0.00,,,1.25,,2013-04-19 06:11:00,
2013-04-19 01:22:00,45.0,35.0,30.15,NW,318,5.0,8.0,69,0.00,,,1.25,,2013-04-19 06:22:00,
2013-04-19 01:32:00,44.0,35.0,30.15,NW,324,5.0,7.0,70,0.00,,,1.25,,2013-04-19 06:32:00,
2013-04-19 01:42:00,44.0,35.0,30.15,NW,324,5.0,7.0,70,0.00,,,1.25,,2013-04-19 06:42:00,
2013-04-19 01:53:00,44.0,36.0,30.15,NW,324,5.0,8.0,72,0.00,,,1.25,,2013-04-19 06:53:00,
2013-04-19 02:02:00,43.0,35.0,30.15,NW,325,5.0,7.0,73,0.00,,,1.25,,2013-04-19 07:02:00,
2013-04-19 02:12:00,43.0,35.0,30.14,NW,325,3.0,5.0,73,0.00,,,1.25,,2013-04-19 07:12:00,
2013-04-19 02:21:00,43.0,35.0,30.14,NW,325,3.0,5.0,73,0.00,,,1.25,,2013-04-19 07:21:00,
2013-04-19 02:32:00,43.0,35.0,30.14,NW,325,3.0,7.0,74,0.00,,,1.25,,2013-04-19 07:32:00,
2013-04-19 02:42:00,42.0,35.0,30.14,NW,324,3.0,5.0,75,0.00,,,1.25,,2013-04-19 07:42:00,
2013-04-19 02:52:00,42.0,35.0,30.14,NW,324,3.0,5.0,75,0.00,,,1.25,,2013-04-19 07:52:00,
2013-04-19 03:02:00,42.0,35.0,30.14,NW,324,3.0,5.0,75,0.00,,,1.25,,2013-04-19 08:02:00,
2013-04-19 03:12:00,42.0,35.0,30.14,NW,324,3.0,5.0,76,0.00,,,1.25,,2013-04-19 08:12:00,
2013-04-19 03:21:00,42.0,35.0,30.14,NW,324,3.0,5.0,76,0.00,,,1.25,,2013-04-19 08:21:00,
2013-04-19 03:32:00,42.0,35.0,30.15,NW,324,1.0,5.0,77,0.00,,,1.25,,2013-04-19 08:32:00,
2013-04-19 03:42:00,42.0,35.0,30.15,NW,324,2.0,5.0,77,0.00,,,1.25,,2013-04-19 08:42:00,
2013-04-19 03:52:00,42.0,35.0,30.15,NW,324,2.0,5.0,77,0.00,,,1.25,,2013-04-19 08:52:00,
2013-04-19 04:01:00,41.0,34.0,30.16,NW,322,3.0,6.0,77,0.00,,,1.25,,2013-04-19 09:01:00,
2013-04-19 04:11:00,41.0,34.0,30.16,NW,321,3.0,6.0,77,0.00,,,1.25,,2013-04-19 09:11:00,
2013-04-19 04:21:00,41.0,34.0,30.16,NW,321,3.0,6.0,77,0.00,,,1.25,,2013-04-19 09:21:00,
2013-04-19 04:32:00,41.0,35.0,30.17,NW,321,1.0,3.0,78,0.00,,,1.25,,2013-04-19 09:32:00,
2013-04-19 04:42:00,41.0,35.0,30.17,NW,321,1.0,3.0,78,0.00,,,1.25,,2013-04-19 09:42:00,
2013-04-19 04:52:00,41.0,35.0,30.18,NW,321,2.0,5.0,78,0.00,,,1.11,,2013-04-19 09:52:00,
2013-04-19 05:02:00,40.0,33.0,30.19,NW,319,2.0,6.0,77,0.00,,,0.82,,2013-04-19 10:02:00,
2013-04-19 05:13:00,41.0,34.0,30.19,NW,317,2.0,6.0,77,0.00,,,0.56,,2013-04-19 10:13:00,
2013-04-19 05:23:00,41.0,34.0,30.19,NW,317,2.0,6.0,77,0.00,,,0.56,,2013-04-19 10:23:00,
2013-04-19 05:33:00,40.0,33.0,30.20,NW,313,3.0,7.0,77,0.00,,,0.47,,2013-04-19 10:33:00,
2013-04-19 05:42:00,40.0,34.0,30.21,NW,313,3.0,6.0,78,0.00,,,0.23,,2013-04-19 10:42:00,
2013-04-19 05:52:00,40.0,34.0,30.21,NW,313,3.0,6.0,78,0.00,,,0.23,,2013-04-19 10:52:00,
2013-04-19 06:02:00,40.0,34.0,30.22,NW,313,1.0,5.0,78,0.00,,,0.18,,2013-04-19 11:02:00,
2013-04-19 06:11:00,40.0,34.0,30.22,NW,313,1.0,3.0,79,0.00,,,0.14,,2013-04-19 11:11:00,
2013-04-19 06:22:00,40.0,34.0,30.22,NW,313,1.0,3.0,79,0.00,,,0.14,,2013-04-19 11:22:00,
2013-04-19 06:32:00,39.0,33.0,30.22,NW,313,1.0,3.0,80,0.00,,,0.12,,2013-04-19 11:32:00,
2013-04-19 06:42:00,39.0,33.0,30.22,NW,313,1.0,3.0,80,0.00,,,0.12,,2013-04-19 11:42:00,
2013-04-19 06:52:00,39.0,34.0,30.23,NW,313,1.0,3.0,83,0.00,,,0.11,,2013-04-19 11:52:00,
2013-04-19 07:02:00,39.0,35.0,30.23,NW,313,2.0,5.0,84,0.00,,,0.09,,2013-04-19 12:02:00,
2013-04-19 07:12:00,39.0,35.0,30.24,NW,313,2.0,5.0,85,0.00,,,0.08,,2013-04-19 12:12:00,
2013-04-19 07:22:00,39.0,35.0,30.24,NW,313,2.0,5.0,85,0.00,,,0.08,,2013-04-19 12:22:00,
2013-04-19 07:32:00,39.0,35.0,30.24,NW,313,1.0,3.0,84,0.00,,,0.07,,2013-04-19 12:32:00,
2013-04-19 07:42:00,39.0,35.0,30.24,NW,313,1.0,3.0,84,0.00,,,0.07,,2013-04-19 12:42:00,
2013-04-19 07:53:00,39.0,35.0,30.25,NW,313,0.0,0.0,84,0.00,,,0.03,,2013-04-19 12:53:00,
2013-04-19 08:01:00,41.0,36.0,30.25,NW,309,0.0,0.0,81,0.00,,,0.00,,2013-04-19 13:01:00,
2013-04-19 08:11:00,42.0,36.0,30.25,WNW,298,0.0,0.0,78,0.00,,,0.00,,2013-04-19 13:11:00,
2013-04-19 08:21:00,42.0,36.0,30.25,WNW,298,0.0,0.0,78,0.00,,,0.00,,2013-04-19 13:21:00,
2013-04-19 08:32:00,43.0,34.0,30.25,NW,306,0.0,0.0,71,0.00,,,0.00,,2013-04-19 13:32:00,
2013-04-19 08:42:00,44.0,34.0,30.26,NW,304,0.0,0.0,67,0.00,,,0.00,,2013-04-19 13:42:00,
2013-04-19 08:52:00,44.0,34.0,30.26,NW,304,0.0,0.0,67,0.00,,,0.00,,2013-04-19 13:52:00,
2013-04-19 09:01:00,45.0,33.0,30.27,NW,323,0.0,0.0,63,0.00,,,0.00,,2013-04-19 14:01:00,
2013-04-19 09:11:00,45.0,31.0,30.27,NNW,343,0.0,0.0,58,0.00,,,0.00,,2013-04-19 14:11:00,
2013-04-19 09:22:00,45.0,31.0,30.27,NNW,343,0.0,0.0,58,0.00,,,0.00,,2013-04-19 14:22:00,
2013-04-19 09:32:00,46.0,31.0,30.27,NW,321,0.0,0.0,55,0.00,,,0.00,,2013-04-19 14:32:00,
2013-04-19 09:42:00,46.0,31.0,30.27,NW,321,0.0,0.0,55,0.00,,,0.00,,2013-04-19 14:42:00,
2013-04-19 09:52:00,46.0,30.0,30.27,NNW,342,0.0,0.0,53,0.00,,,0.00,,2013-04-19 14:52:00,
2013-04-19 10:01:00,47.0,29.0,30.27,North,0,0.0,0.0,50,0.00,,,0.00,,2013-04-19 15:01:00,
2013-04-19 10:12:00,47.0,28.0,30.28,NW,322,0.0,0.0,48,0.00,,,0.00,,2013-04-19 15:12:00,
2013-04-19 10:21:00,47.0,28.0,30.28,NW,322,0.0,0.0,48,0.00,,,0.00,,2013-04-19 15:21:00,
2013-04-19 10:33:00,48.0,29.0,30.28,WNW,300,0.0,0.0,48,0.00,,,0.00,,2013-04-19 15:33:00,
2013-04-19 10:43:00,48.0,29.0,30.28,WNW,300,0.0,0.0,48,0.00,,,0.00,,2013-04-19 15:43:00,
2013-04-19 10:52:00,48.0,27.0,30.29,NW,322,0.0,0.0,44,0.00,,,0.00,,2013-04-19 15:52:00,
2013-04-19 11:03:00,49.0,29.0,30.29,NNW,339,0.0,0.0,45,0.00,,,0.00,,2013-04-19 16:03:00,
2013-04-19 11:12:00,49.0,27.0,30.29,NNW,337,0.0,0.0,42,0.00,,,0.00,,2013-04-19 16:12:00,
2013-04-19 11:23:00,49.0,27.0,30.29,NNW,337,0.0,0.0,42,0.00,,,0.00,,2013-04-19 16:23:00,
2013-04-19 11:32:00,50.0,28.0,30.29,NW,321,0.0,0.0,42,0.00,,,0.00,,2013-04-19 16:32:00,
2013-04-19 11:42:00,50.0,28.0,30.28,WNW,288,0.0,0.0,42,0.00,,,0.00,,2013-04-19 16:42:00,
2013-04-19 11:53:00,50.0,28.0,30.28,WNW,288,0.0,0.0,42,0.00,,,0.00,,2013-04-19 16:53:00,
2013-04-19 12:02:00,51.0,29.0,30.28,WNW,297,0.0,0.0,42,0.00,,,0.00,,2013-04-19 17:02:00,
2013-04-19 12:12:00,51.0,29.0,30.28,WNW,297,0.0,0.0,42,0.00,,,0.00,,2013-04-19 17:12:00,
2013-04-19 12:21:00,52.0,30.0,30.28,WNW,294,0.0,0.0,42,0.00,,,0.00,,2013-04-19 17:21:00,
2013-04-19 12:33:00,53.0,29.0,30.28,NNW,336,0.0,0.0,40,0.00,,,0.00,,2013-04-19 17:33:00,
2013-04-19 12:42:00,53.0,29.0,30.28,NNW,336,0.0,0.0,40,0.00,,,0.00,,2013-04-19 17:42:00,
2013-04-19 12:52:00,53.0,29.0,30.27,NW,316,0.0,0.0,40,0.00,,,0.00,,2013-04-19 17:52:00,
2013-04-19 13:01:00,53.0,28.0,30.27,NNW,332,0.0,0.0,38,0.00,,,0.00,,2013-04-19 18:01:00,
2013-04-19 13:13:00,53.0,28.0,30.27,NNW,332,0.0,0.0,38,0.00,,,0.00,,2013-04-19 18:13:00,
2013-04-19 13:22:00,54.0,28.0,30.25,NNW,328,0.0,0.0,36,0.00,,,0.00,,2013-04-19 18:22:00,
2013-04-19 13:33:00,55.0,29.0,30.25,WNW,291,0.0,0.0,37,0.00,,,0.00,,2013-04-19 18:33:00,
2013-04-19 13:42:00,55.0,29.0,30.25,WNW,291,0.0,0.0,37,0.00,,,0.00,,2013-04-19 18:42:00,
2013-04-19 13:52:00,56.0,28.0,30.24,NNE,19,0.0,0.0,34,0.00,,,0.00,,2013-04-19 18:52:00,
2013-04-19 14:01:00,56.0,27.0,30.24,NNW,327,0.0,0.0,32,0.00,,,0.00,,2013-04-19 19:01:00,
2013-04-19 14:11:00,57.0,27.0,30.24,WNW,293,0.0,0.0,32,0.00,,,0.00,,2013-04-19 19:11:00,
2013-04-19 14:21:00,57.0,27.0,30.24,WNW,293,0.0,0.0,32,0.00,,,0.00,,2013-04-19 19:21:00,
2013-04-19 14:32:00,58.0,28.0,30.23,NW,323,0.0,0.0,32,0.00,,,0.00,,2013-04-19 19:32:00,
2013-04-19 14:41:00,58.0,28.0,30.23,NW,323,0.0,0.0,32,0.00,,,0.00,,2013-04-19 19:41:00,
2013-04-19 14:52:00,58.0,27.0,30.22,NW,308,0.0,0.0,30,0.00,,,0.00,,2013-04-19 19:52:00,
2013-04-19 15:01:00,59.0,28.0,30.22,NW,314,0.0,0.0,31,0.00,,,0.00,,2013-04-19 20:01:00,
2013-04-19 15:11:00,60.0,30.0,30.21,NNW,348,0.0,0.0,32,0.00,,,0.00,,2013-04-19 20:11:00,
2013-04-19 15:22:00,60.0,30.0,30.21,NNW,348,0.0,0.0,32,0.00,,,0.00,,2013-04-19 20:22:00,
2013-04-19 15:32:00,60.0,28.0,30.20,NW,325,0.0,0.0,29,0.00,,,0.00,,2013-04-19 20:32:00,
2013-04-19 15:42:00,60.0,28.0,30.20,NW,307,0.0,0.0,29,0.00,,,0.00,,2013-04-19 20:42:00,
2013-04-19 15:52:00,60.0,28.0,30.20,NW,307,0.0,0.0,29,0.00,,,0.00,,2013-04-19 20:52:00,
2013-04-19 16:01:00,61.0,29.0,30.18,NNW,346,0.0,0.0,29,0.00,,,0.00,,2013-04-19 21:01:00,
2013-04-19 16:11:00,61.0,29.0,30.18,NW,313,0.0,0.0,29,0.00,,,0.00,,2013-04-19 21:11:00,
2013-04-19 16:21:00,61.0,29.0,30.18,NW,313,0.0,0.0,29,0.00,,,0.00,,2013-04-19 21:21:00,
2013-04-19 16:32:00,61.0,27.0,30.17,North,351,0.0,0.0,27,0.00,,,0.00,,2013-04-19 21:32:00,
2013-04-19 16:42:00,61.0,27.0,30.17,North,351,0.0,0.0,27,0.00,,,0.00,,2013-04-19 21:42:00,
2013-04-19 16:53:00,62.0,29.0,30.17,WNW,290,0.0,0.0,29,0.00,,,0.00,,2013-04-19 21:53:00,
2013-04-19 17:02:00,62.0,29.0,30.16,NW,309,0.0,0.0,29,0.00,,,0.00,,2013-04-19 22:02:00,
2013-04-19 17:12:00,62.0,29.0,30.16,NW,311,0.0,0.0,28,0.00,,,0.00,,2013-04-19 22:12:00,
2013-04-19 17:22:00,62.0,29.0,30.16,NW,311,0.0,0.0,28,0.00,,,0.00,,2013-04-19 22:22:00,
2013-04-19 17:33:00,62.0,29.0,30.15,NW,317,0.0,0.0,28,0.00,,,0.00,,2013-04-19 22:33:00,
2013-04-19 17:42:00,63.0,29.0,30.15,NW,318,0.0,0.0,27,0.00,,,0.00,,2013-04-19 22:42:00,
2013-04-19 17:52:00,63.0,29.0,30.15,NW,318,0.0,0.0,27,0.00,,,0.00,,2013-04-19 22:52:00,
2013-04-19 18:02:00,63.0,29.0,30.15,West,281,0.0,0.0,27,0.00,,,0.00,,2013-04-19 23:02:00,
2013-04-19 18:11:00,63.0,30.0,30.14,WNW,298,0.0,0.0,29,0.00,,,0.00,,2013-04-19 23:11:00,
2013-04-19 18:22:00,63.0,30.0,30.14,WNW,298,0.0,0.0,29,0.00,,,0.00,,2013-04-19 23:22:00,
2013-04-19 18:32:00,63.0,29.0,30.14,NW,304,0.0,0.0,28,0.00,,,0.00,,2013-04-19 23:32:00,
2013-04-19 18:42:00,63.0,29.0,30.14,NW,304,0.0,0.0,28,0.00,,,0.00,,2013-04-19 23:42:00,
2013-04-19 18:52:00,63.0,29.0,30.14,NW,319,0.0,0.0,28,0.00,,,0.00,,2013-04-19 23:52:00,
2013-04-19 19:02:00,63.0,29.0,30.14,WNW,302,0.0,0.0,28,0.00,,,0.00,,2013-04-20 00:02:00,
2013-04-19 19:12:00,63.0,29.0,30.14,NW,315,0.0,0.0,28,0.00,,,0.00,,2013-04-20 00:12:00,
2013-04-19 19:21:00,63.0,29.0,30.14,NW,315,0.0,0.0,28,0.00,,,0.00,,2013-04-20 00:21:00,
2013-04-19 19:32:00,63.0,31.0,30.14,WNW,296,0.0,0.0,30,0.00,,,0.00,,2013-04-20 00:32:00,
2013-04-19 19:41:00,63.0,31.0,30.14,WNW,296,0.0,0.0,30,0.00,,,0.00,,2013-04-20 00:41:00,
2013-04-19 19:52:00,62.0,30.0,30.14,WNW,298,0.0,0.0,30,0.00,,,0.00,,2013-04-20 00:52:00,
2013-04-19 20:01:00,62.0,32.0,30.14,WNW,298,0.0,0.0,32,0.00,,,0.00,,2013-04-20 01:01:00,
2013-04-19 20:11:00,62.0,32.0,30.14,WNW,298,0.0,0.0,32,0.00,,,0.00,,2013-04-20 01:11:00,
2013-04-19 20:21:00,61.0,35.0,30.14,WNW,298,0.0,0.0,37,0.00,,,0.00,,2013-04-20 01:21:00,
2013-04-19 20:32:00,58.0,35.0,30.14,WNW,298,0.0,0.0,42,0.00,,,0.00,,2013-04-20 01:32:00,
2013-04-19 20:42:00,58.0,35.0,30.14,WNW,298,0.0,0.0,42,0.00,,,0.00,,2013-04-20 01:42:00,
2013-04-19 20:52:00,56.0,36.0,30.14,WNW,298,0.0,0.0,47,0.00,,,0.00,,2013-04-20 01:52:00,
2013-04-19 21:01:00,55.0,37.0,30.15,WNW,298,0.0,0.0,51,0.00,,,0.00,,2013-04-20 02:01:00,
2013-04-19 21:11:00,53.0,35.0,30.15,WNW,298,0.0,0.0,51,0.00,,,0.00,,2013-04-20 02:11:00,
2013-04-19 21:21:00,53.0,35.0,30.15,WNW,298,0.0,0.0,51,0.00,,,0.00,,2013-04-20 02:21:00,
2013-04-19 21:32:00,53.0,38.0,30.16,WNW,298,0.0,0.0,57,0.00,,,0.00,,2013-04-20 02:32:00,
2013-04-19 21:42:00,53.0,38.0,30.16,WNW,298,0.0,0.0,57,0.00,,,0.00,,2013-04-20 02:42:00,
2013-04-19 21:52:00,52.0,37.0,30.16,WNW,298,0.0,0.0,57,0.00,,,0.00,,2013-04-20 02:52:00,
2013-04-19 22:01:00,51.0,38.0,30.16,WNW,298,0.0,0.0,60,0.00,,,0.00,,2013-04-20 03:01:00,
2013-04-19 22:11:00,51.0,38.0,30.16,WNW,297,0.0,1.0,60,0.00,,,0.00,,2013-04-20 03:11:00,
2013-04-19 22:21:00,51.0,38.0,30.16,WNW,297,0.0,1.0,60,0.00,,,0.00,,2013-04-20 03:21:00,
2013-04-19 22:33:00,51.0,36.0,30.16,SSE,167,3.0,6.0,57,0.00,,,0.00,,2013-04-20 03:33:00,
2013-04-19 22:43:00,52.0,36.0,30.16,SSE,159,3.0,5.0,54,0.00,,,0.00,,2013-04-20 03:43:00,
2013-04-19 22:53:00,52.0,36.0,30.16,SSE,159,3.0,5.0,54,0.00,,,0.00,,2013-04-20 03:53:00,
2013-04-19 23:03:00,51.0,35.0,30.17,SSE,159,3.0,5.0,54,0.00,,,0.00,,2013-04-20 04:03:00,
2013-04-19 23:12:00,51.0,34.0,30.16,SSE,159,4.0,7.0,53,0.00,,,0.00,,2013-04-20 04:12:00,
2013-04-19 23:23:00,51.0,34.0,30.16,SSE,159,4.0,7.0,53,0.00,,,0.00,,2013-04-20 04:23:00,
2013-04-19 23:32:00,51.0,34.0,30.17,SSE,159,3.0,5.0,53,0.00,,,0.00,,2013-04-20 04:32:00,
2013-04-19 23:42:00,51.0,34.0,30.17,SSE,159,3.0,5.0,53,0.00,,,0.00,,2013-04-20 04:42:00,
2013-04-19 23:52:00,51.0,35.0,30.17,SSE,159,5.0,7.0,54,0.00,,,0.00,,2013-04-20 04:52:00,